createdAt,value
2023-05-17T00:02:22.598Z,0.90
2023-05-17T00:07:25.515Z,0.80
2023-05-17T00:12:28.482Z,1.00
2023-05-17T00:17:40.316Z,1.20
2023-05-17T00:22:43.689Z,1.10
2023-05-17T00:27:46.502Z,1.10
2023-05-17T00:32:49.586Z,0.95
2023-05-17T00:37:54.461Z,0.75
2023-05-17T00:42:57.395Z,0.80
2023-05-17T00:48:00.288Z,1.10
2023-05-17T00:53:03.481Z,0.90
2023-05-17T00:58:06.606Z,1.00
2023-05-17T01:03:09.564Z,1.10
2023-05-17T01:08:12.549Z,1.20
2023-05-17T01:14:06.132Z,0.98
2023-05-17T01:19:28.233Z,0.70
2023-05-17T01:24:57.273Z,1.05
2023-05-17T01:30:01.945Z,1.40
2023-05-17T01:35:08.327Z,0.50
2023-05-17T01:40:11.982Z,0.85
2023-05-17T01:45:29.319Z,0.80
2023-05-17T01:50:33.537Z,0.80
2023-05-17T01:55:44.165Z,1.08
2023-05-17T02:00:47.645Z,0.50
2023-05-17T02:05:50.512Z,0.65
2023-05-17T02:10:53.590Z,0.70
2023-05-17T02:16:01.400Z,0.70
2023-05-17T02:21:05.032Z,0.75
2023-05-17T02:26:07.990Z,0.80
2023-05-17T02:31:11.254Z,0.90
2023-05-17T02:36:14.358Z,0.47
2023-05-17T02:41:17.243Z,0.60
2023-05-17T02:46:20.372Z,0.38
2023-05-17T02:51:23.301Z,0.30
2023-05-17T02:56:26.433Z,1.60
2023-05-17T03:01:30.422Z,0.60
2023-05-17T03:06:35.064Z,0.95
2023-05-17T03:11:38.508Z,0.40
2023-05-17T03:16:46.196Z,0.40
2023-05-17T03:21:49.926Z,0.50
2023-05-17T03:26:54.002Z,0.30
2023-05-17T03:31:58.486Z,0.50
2023-05-17T03:37:01.968Z,0.80
2023-05-17T03:42:06.664Z,0.75
2023-05-17T03:47:10.417Z,0.40
2023-05-17T03:52:13.598Z,0.57
2023-05-17T03:57:16.990Z,0.55
2023-05-17T04:02:21.024Z,1.15
2023-05-17T04:07:24.377Z,0.45
2023-05-17T04:12:27.353Z,0.80
2023-05-17T04:17:30.555Z,0.60
2023-05-17T04:22:33.997Z,0.70
2023-05-17T04:27:37.007Z,0.80
2023-05-17T04:32:43.669Z,0.65
2023-05-17T04:37:46.721Z,0.85
2023-05-17T04:42:57.869Z,0.35
2023-05-17T04:48:02.569Z,0.60
2023-05-17T04:53:06.632Z,0.83
2023-05-17T04:58:12.540Z,1.23
2023-05-17T05:03:15.750Z,0.70
2023-05-17T05:08:18.908Z,0.77
2023-05-17T05:13:23.440Z,0.63
2023-05-17T05:23:31.202Z,0.60
2023-05-17T05:28:34.460Z,0.30
2023-05-17T05:33:38.607Z,0.75
2023-05-17T05:38:41.720Z,0.75
2023-05-17T05:43:44.675Z,0.50
2023-05-17T05:48:47.664Z,0.40
2023-05-17T05:53:51.108Z,0.65
2023-05-17T05:58:56.917Z,0.70
2023-05-17T06:04:00.751Z,0.40
2023-05-17T06:09:04.468Z,0.68
2023-05-17T06:14:07.446Z,0.65
2023-05-17T06:19:10.377Z,1.17
2023-05-17T06:24:13.460Z,0.50
2023-05-17T06:29:16.630Z,1.20
2023-05-17T06:34:19.586Z,1.05
2023-05-17T06:39:22.589Z,0.70
2023-05-17T06:44:25.807Z,0.88
2023-05-17T06:49:28.735Z,0.90
2023-05-17T06:54:32.063Z,0.50
2023-05-17T06:59:34.930Z,0.28
2023-05-17T07:04:37.954Z,0.50
2023-05-17T07:09:41.783Z,0.52
2023-05-17T07:14:44.708Z,0.40
2023-05-17T07:19:51.348Z,0.20
2023-05-17T07:24:54.301Z,0.50
2023-05-17T07:29:57.258Z,1.20
2023-05-17T07:35:00.405Z,0.43
2023-05-17T07:40:04.697Z,0.40
2023-05-17T07:45:09.563Z,0.50
2023-05-17T07:50:12.769Z,0.20
2023-05-17T07:55:17.098Z,0.47
2023-05-17T08:00:20.669Z,0.85
2023-05-17T08:05:23.699Z,0.30
2023-05-17T08:10:27.888Z,0.35
2023-05-17T08:15:31.353Z,0.52
2023-05-17T08:20:34.564Z,2.85
2023-05-17T08:25:37.532Z,0.63
2023-05-17T08:30:40.509Z,0.52
2023-05-17T08:35:43.555Z,0.40
2023-05-17T08:40:54.853Z,0.40
2023-05-17T08:45:58.437Z,0.30
2023-05-17T08:51:02.000Z,0.45
2023-05-17T08:56:07.496Z,0.40
2023-05-17T09:01:10.592Z,0.30
2023-05-17T09:06:14.242Z,0.30
2023-05-17T09:11:26.240Z,0.40
2023-05-17T09:16:30.836Z,0.40
2023-05-17T09:21:34.584Z,0.67
2023-05-17T09:26:41.910Z,0.40
2023-05-17T09:31:45.296Z,0.60
2023-05-17T09:36:48.256Z,0.60
2023-05-17T09:41:57.815Z,0.60
2023-05-17T09:47:00.741Z,0.50
2023-05-17T09:52:08.557Z,0.40
2023-05-17T09:57:11.749Z,0.52
2023-05-17T10:02:28.834Z,0.68
2023-05-17T10:07:32.547Z,0.50
2023-05-17T10:12:35.859Z,0.40
2023-05-17T10:17:44.646Z,0.90
2023-05-17T10:22:48.724Z,0.30
2023-05-17T10:27:52.334Z,0.85
2023-05-17T10:32:56.146Z,0.70
2023-05-17T10:37:59.210Z,0.30
2023-05-17T10:43:02.346Z,0.40
2023-05-17T10:48:08.750Z,0.70
2023-05-17T10:53:11.921Z,0.60
2023-05-17T10:58:17.605Z,0.73
2023-05-17T11:03:23.333Z,0.40
2023-05-17T11:08:26.232Z,1.10
2023-05-17T11:13:29.309Z,0.38
2023-05-17T11:19:08.469Z,0.25
2023-05-17T11:24:14.826Z,1.00
2023-05-17T11:29:18.285Z,0.60
2023-05-17T11:34:25.623Z,0.63
2023-05-17T11:39:28.585Z,0.30
2023-05-17T11:44:32.888Z,0.43
2023-05-17T11:49:38.858Z,0.90
2023-05-17T11:54:43.387Z,0.40
2023-05-17T11:59:46.758Z,0.73
2023-05-17T12:04:49.743Z,0.50
2023-05-17T12:09:53.347Z,0.40
2023-05-17T12:14:56.449Z,0.50
2023-05-17T12:20:08.453Z,0.60
2023-05-17T12:25:20.363Z,0.55
2023-05-17T12:30:24.343Z,0.45
2023-05-17T12:35:27.320Z,0.70
2023-05-17T12:40:30.494Z,0.60
2023-05-17T12:45:34.636Z,0.50
2023-05-17T12:50:37.526Z,0.50
2023-05-17T12:55:40.426Z,1.00
2023-05-17T13:00:57.713Z,0.50
2023-05-17T13:06:05.103Z,0.57
2023-05-17T13:11:16.391Z,0.80
2023-05-17T13:16:30.120Z,0.73
2023-05-17T13:21:33.134Z,0.80
2023-05-17T13:26:36.093Z,1.00
2023-05-17T13:31:38.950Z,0.60
2023-05-17T13:36:42.707Z,0.98
2023-05-17T13:41:45.691Z,0.75
2023-05-17T13:46:48.653Z,1.02
2023-05-17T13:51:51.533Z,0.90
2023-05-17T13:56:55.895Z,1.30
2023-05-17T14:01:58.929Z,1.27
2023-05-17T14:07:03.806Z,1.20
2023-05-17T14:12:07.122Z,1.00
2023-05-17T14:17:10.157Z,1.17
2023-05-17T14:22:14.202Z,1.85
2023-05-17T14:27:17.303Z,1.40
2023-05-17T14:32:20.277Z,3.40
2023-05-17T14:37:23.269Z,1.80
2023-05-17T14:42:27.787Z,1.63
2023-05-17T14:47:30.721Z,1.42
2023-05-17T14:52:35.215Z,1.17
2023-05-17T14:57:40.444Z,1.47
2023-05-17T15:02:43.433Z,1.80
2023-05-17T15:07:47.938Z,1.40
2023-05-17T15:12:51.007Z,1.20
2023-05-17T15:17:54.666Z,1.30
2023-05-17T15:22:57.607Z,1.15
2023-05-17T15:28:00.587Z,1.20
2023-05-17T15:33:04.011Z,2.00
2023-05-17T15:38:07.240Z,1.80
2023-05-17T15:43:10.268Z,1.13
2023-05-17T15:48:13.505Z,1.25
2023-05-17T15:53:16.462Z,1.10
2023-05-17T15:58:19.888Z,1.00
2023-05-17T16:03:22.890Z,1.55
2023-05-17T16:08:26.163Z,1.00
2023-05-17T16:13:29.160Z,1.00
2023-05-17T16:18:33.521Z,0.80
2023-05-17T16:23:36.528Z,1.10
2023-05-17T16:28:39.721Z,1.42
2023-05-17T16:33:43.102Z,1.70
2023-05-17T16:38:46.345Z,2.00
2023-05-17T16:43:49.272Z,1.30
2023-05-17T16:48:55.892Z,1.38
2023-05-17T16:53:58.840Z,1.60
2023-05-17T16:59:01.871Z,1.30
2023-05-17T17:04:04.966Z,1.30
2023-05-17T17:09:09.483Z,1.23
2023-05-17T17:14:13.655Z,1.73
2023-05-17T17:19:17.093Z,1.15
2023-05-17T17:24:20.051Z,1.27
2023-05-17T17:29:22.977Z,1.02
2023-05-17T17:34:25.985Z,1.20
2023-05-17T17:39:28.851Z,1.30
2023-05-17T17:44:31.755Z,1.70
2023-05-17T17:49:36.468Z,1.30
2023-05-17T17:54:39.588Z,1.50
2023-05-17T17:59:42.511Z,1.20
2023-05-17T18:04:46.309Z,1.55
2023-05-17T18:09:49.369Z,1.70
2023-05-17T18:14:52.576Z,1.45
2023-05-17T18:19:55.518Z,1.52
2023-05-17T18:24:58.625Z,1.13
2023-05-17T18:30:01.868Z,1.30
2023-05-17T18:35:08.078Z,1.00
2023-05-17T18:40:11.670Z,1.13
2023-05-17T18:45:14.593Z,1.00
2023-05-17T18:50:17.554Z,0.98
2023-05-17T18:55:20.509Z,0.60
2023-05-17T19:00:23.447Z,0.77
2023-05-17T19:05:26.332Z,1.20
2023-05-17T19:10:29.435Z,1.00
2023-05-17T19:15:33.049Z,0.90
2023-05-17T19:20:36.077Z,1.17
2023-05-17T19:25:39.027Z,0.80
2023-05-17T19:30:41.944Z,1.10
2023-05-17T19:35:45.326Z,1.10
2023-05-17T19:40:48.234Z,1.00
2023-05-17T19:45:51.289Z,0.90
2023-05-17T19:50:56.665Z,0.88
2023-05-17T19:56:01.426Z,0.80
2023-05-17T20:01:04.494Z,1.10
2023-05-17T20:06:07.496Z,1.08
2023-05-17T20:11:11.309Z,1.10
2023-05-17T20:16:14.442Z,1.10
2023-05-17T20:21:20.579Z,1.30
2023-05-17T20:26:27.456Z,1.77
2023-05-17T20:31:30.472Z,1.30
2023-05-17T20:36:33.426Z,1.30
2023-05-17T20:41:36.341Z,1.40
2023-05-17T20:46:39.312Z,0.90
2023-05-17T20:51:42.627Z,1.30
2023-05-17T20:56:45.546Z,0.90
2023-05-17T21:01:48.643Z,1.20
2023-05-17T21:06:52.722Z,0.90
2023-05-17T21:11:55.584Z,1.27
2023-05-17T21:16:58.495Z,1.15
2023-05-17T21:22:01.420Z,1.30
2023-05-17T21:27:04.524Z,1.30
2023-05-17T21:32:07.776Z,1.45
2023-05-17T21:37:10.636Z,1.70
2023-05-17T21:42:13.654Z,1.58
2023-05-17T21:47:16.625Z,1.50
2023-05-17T21:52:19.492Z,1.63
2023-05-17T21:57:22.472Z,1.92
2023-05-17T22:02:25.365Z,1.65
2023-05-17T22:07:28.289Z,1.20
2023-05-17T22:12:31.164Z,1.40
2023-05-17T22:17:48.051Z,1.40
2023-05-17T22:22:55.473Z,2.97
2023-05-17T22:27:58.576Z,2.20
2023-05-17T22:33:01.805Z,1.42
2023-05-17T22:38:05.229Z,1.50
2023-05-17T22:43:08.760Z,1.58
2023-05-17T22:48:14.772Z,1.40
2023-05-17T22:53:18.894Z,1.20
2023-05-17T22:58:23.853Z,1.73
2023-05-17T23:03:26.827Z,1.40
2023-05-17T23:08:30.686Z,1.70
2023-05-17T23:13:33.670Z,1.83
2023-05-17T23:18:36.716Z,1.70
2023-05-17T23:23:41.053Z,1.92
2023-05-17T23:28:44.525Z,2.00
2023-05-17T23:33:47.518Z,1.73
2023-05-17T23:38:50.462Z,1.85
2023-05-17T23:43:53.553Z,1.55
2023-05-17T23:48:57.765Z,1.65
2023-05-17T23:54:00.972Z,1.70
2023-05-17T23:59:04.193Z,2.17
